createdAt,value
2022-08-11T00:02:03.637Z,1.85
2022-08-11T00:04:38.280Z,1.55
2022-08-11T00:07:08.911Z,1.40
2022-08-11T00:09:40.343Z,1.30
2022-08-11T00:12:16.293Z,1.80
2022-08-11T00:14:46.036Z,2.20
2022-08-11T00:17:17.243Z,1.85
2022-08-11T00:20:12.751Z,1.40
2022-08-11T00:22:43.182Z,1.30
2022-08-11T00:25:20.794Z,1.35
2022-08-11T00:27:50.717Z,1.20
2022-08-11T00:30:19.667Z,1.17
2022-08-11T00:32:57.478Z,1.20
2022-08-11T00:35:55.152Z,1.30
2022-08-11T00:38:27.116Z,1.35
2022-08-11T00:41:18.111Z,1.83
2022-08-11T00:44:00.882Z,1.27
2022-08-11T00:46:37.219Z,1.45
2022-08-11T00:49:25.750Z,1.40
2022-08-11T00:52:11.664Z,1.58
2022-08-11T00:55:04.489Z,1.50
2022-08-11T00:58:00.807Z,1.50
2022-08-11T01:00:36.021Z,1.58
2022-08-11T01:03:20.273Z,2.20
2022-08-11T01:06:25.100Z,1.50
2022-08-11T01:09:08.850Z,2.45
2022-08-11T01:11:56.382Z,1.70
2022-08-11T01:15:08.334Z,1.70
2022-08-11T01:17:49.572Z,2.15
2022-08-11T01:20:45.453Z,1.30
2022-08-11T01:23:36.858Z,1.65
2022-08-11T01:26:32.684Z,1.33
2022-08-11T01:29:26.801Z,1.73
2022-08-11T01:32:36.536Z,1.15
2022-08-11T01:35:43.796Z,1.45
2022-08-11T01:38:33.897Z,1.70
2022-08-11T01:41:52.740Z,1.40
2022-08-11T01:44:58.856Z,1.40
2022-08-11T01:47:52.892Z,1.60
2022-08-11T01:50:50.032Z,1.83
2022-08-11T01:54:05.844Z,1.75
2022-08-11T01:56:58.383Z,1.90
2022-08-11T01:59:50.717Z,1.85
2022-08-11T02:03:09.481Z,1.67
2022-08-11T02:06:02.733Z,1.92
2022-08-11T02:09:22.008Z,1.80
2022-08-11T02:11:54.378Z,2.03
2022-08-11T02:15:04.645Z,2.17
2022-08-11T02:18:09.631Z,2.17
2022-08-11T02:21:00.778Z,1.80
2022-08-11T02:24:06.870Z,1.45
2022-08-11T02:26:58.226Z,2.15
2022-08-11T02:29:31.911Z,1.63
2022-08-11T02:32:32.979Z,1.63
2022-08-11T02:35:25.190Z,1.35
2022-08-11T02:38:20.338Z,1.73
2022-08-11T02:41:31.220Z,2.10
2022-08-11T02:44:09.128Z,1.45
2022-08-11T02:46:51.340Z,1.40
2022-08-11T02:50:06.514Z,1.55
2022-08-11T02:53:16.704Z,1.98
2022-08-11T02:55:58.276Z,1.60
2022-08-11T02:59:08.326Z,1.77
2022-08-11T03:01:49.621Z,1.90
2022-08-11T03:04:59.281Z,1.50
2022-08-11T03:07:36.397Z,2.15
2022-08-11T03:10:31.069Z,2.78
2022-08-11T03:13:53.972Z,2.22
2022-08-11T03:16:49.695Z,1.45
2022-08-11T03:19:26.853Z,1.45
2022-08-11T03:22:24.871Z,1.90
2022-08-11T03:25:04.741Z,2.00
2022-08-11T03:27:49.657Z,1.80
2022-08-11T03:30:28.807Z,1.75
2022-08-11T03:33:50.784Z,1.60
2022-08-11T03:36:29.912Z,1.73
2022-08-11T03:39:05.464Z,2.30
2022-08-11T03:42:01.301Z,1.63
2022-08-11T03:45:09.221Z,1.95
2022-08-11T03:48:15.468Z,1.83
2022-08-11T03:51:08.926Z,1.98
2022-08-11T03:54:25.734Z,2.00
2022-08-11T03:57:04.653Z,1.85
2022-08-11T04:00:11.583Z,1.90
2022-08-11T04:03:01.293Z,1.92
2022-08-11T04:06:03.747Z,1.65
2022-08-11T04:08:59.403Z,2.42
2022-08-11T04:11:49.034Z,1.95
2022-08-11T04:15:18.022Z,2.80
2022-08-11T04:18:07.276Z,2.38
2022-08-11T04:20:53.368Z,2.22
2022-08-11T04:24:35.554Z,6.60
2022-08-11T04:26:58.965Z,4.70
2022-08-11T04:30:08.975Z,3.50
2022-08-11T04:33:02.665Z,3.17
2022-08-11T04:36:07.513Z,2.80
2022-08-11T04:39:11.247Z,2.42
2022-08-11T04:42:16.610Z,2.20
2022-08-11T04:45:01.962Z,2.30
2022-08-11T04:48:01.792Z,4.07
2022-08-11T04:51:16.852Z,2.92
2022-08-11T04:54:38.096Z,5.55
2022-08-11T04:57:36.842Z,4.38
2022-08-11T05:00:33.241Z,4.75
2022-08-11T05:03:10.763Z,4.13
2022-08-11T05:05:58.805Z,4.68
2022-08-11T05:09:01.256Z,2.92
2022-08-11T05:12:01.779Z,3.60
2022-08-11T05:15:15.817Z,2.90
2022-08-11T05:18:20.090Z,3.03
2022-08-11T05:21:14.414Z,3.40
2022-08-11T05:24:07.168Z,2.90
2022-08-11T05:27:11.336Z,2.97
2022-08-11T05:30:08.132Z,2.08
2022-08-11T05:33:02.572Z,2.50
2022-08-11T05:36:00.632Z,2.55
2022-08-11T05:38:54.061Z,2.50
2022-08-11T05:41:46.854Z,2.20
2022-08-11T05:44:40.686Z,2.63
2022-08-11T05:47:29.028Z,2.25
2022-08-11T05:50:16.558Z,2.60
2022-08-11T05:53:08.998Z,2.10
2022-08-11T05:56:03.171Z,2.97
2022-08-11T05:58:42.967Z,2.28
2022-08-11T06:01:22.894Z,2.25
2022-08-11T06:04:13.120Z,2.35
2022-08-11T06:06:52.617Z,2.75
2022-08-11T06:09:32.914Z,2.45
2022-08-11T06:12:08.818Z,3.00
2022-08-11T06:14:45.457Z,2.55
2022-08-11T06:17:18.480Z,2.13
2022-08-11T06:19:50.395Z,4.03
2022-08-11T06:22:23.370Z,2.45
2022-08-11T06:25:01.930Z,2.40
2022-08-11T06:27:36.267Z,2.63
2022-08-11T06:30:25.189Z,2.83
2022-08-11T06:32:56.792Z,2.42
2022-08-11T06:35:47.096Z,2.85
2022-08-11T06:38:29.735Z,2.45
2022-08-11T06:41:22.021Z,2.28
2022-08-11T06:43:56.557Z,2.60
2022-08-11T06:46:32.801Z,2.85
2022-08-11T06:49:06.080Z,3.00
2022-08-11T06:51:41.730Z,2.40
2022-08-11T06:54:15.956Z,2.85
2022-08-11T06:57:28.952Z,2.58
2022-08-11T07:00:15.447Z,2.60
2022-08-11T07:02:50.855Z,2.53
2022-08-11T07:05:24.908Z,2.47
2022-08-11T07:08:34.445Z,2.80
2022-08-11T07:11:59.960Z,2.92
2022-08-11T07:14:49.745Z,2.72
2022-08-11T07:17:27.590Z,3.10
2022-08-11T07:20:21.099Z,3.30
2022-08-11T07:23:17.677Z,3.30
2022-08-11T07:26:10.287Z,3.00
2022-08-11T07:28:59.960Z,3.33
2022-08-11T07:31:37.484Z,3.10
2022-08-11T07:34:32.381Z,2.92
2022-08-11T07:37:05.740Z,2.70
2022-08-11T07:39:35.701Z,2.80
2022-08-11T07:42:10.569Z,3.10
2022-08-11T07:45:00.831Z,3.08
2022-08-11T07:47:48.418Z,2.85
2022-08-11T07:50:35.989Z,2.92
2022-08-11T07:53:05.771Z,3.42
2022-08-11T07:55:51.409Z,2.80
2022-08-11T07:58:45.588Z,2.70
2022-08-11T08:01:42.420Z,2.90
2022-08-11T08:04:33.785Z,2.60
2022-08-11T08:07:23.957Z,2.85
2022-08-11T08:10:16.071Z,2.80
2022-08-11T08:13:04.084Z,2.78
2022-08-11T08:15:51.173Z,2.90
2022-08-11T08:18:27.621Z,2.85
2022-08-11T08:21:13.162Z,3.28
2022-08-11T08:23:44.746Z,2.42
2022-08-11T08:26:36.997Z,2.95
2022-08-11T08:29:26.717Z,2.53
2022-08-11T08:31:57.931Z,3.03
2022-08-11T08:34:27.533Z,2.33
2022-08-11T08:37:02.192Z,2.70
2022-08-11T08:39:31.468Z,2.63
2022-08-11T08:42:02.187Z,2.50
2022-08-11T08:44:39.027Z,2.72
2022-08-11T08:47:41.450Z,2.80
2022-08-11T08:50:20.746Z,3.42
2022-08-11T08:53:07.040Z,2.88
2022-08-11T08:55:37.099Z,2.53
2022-08-11T08:58:05.959Z,2.78
2022-08-11T09:00:47.146Z,2.70
2022-08-11T09:03:41.822Z,2.78
2022-08-11T09:06:05.177Z,3.40
2022-08-11T09:08:36.431Z,3.08
2022-08-11T09:11:25.134Z,2.70
2022-08-11T09:14:03.217Z,2.65
2022-08-11T09:16:37.104Z,2.80
2022-08-11T09:19:06.193Z,2.90
2022-08-11T09:21:46.304Z,3.15
2022-08-11T09:27:09.804Z,2.80
2022-08-11T09:29:40.458Z,3.42
2022-08-11T09:32:10.220Z,2.95
2022-08-11T09:34:40.647Z,2.67
2022-08-11T09:37:54.045Z,3.17
2022-08-11T09:40:30.542Z,2.88
2022-08-11T09:43:29.969Z,3.00
2022-08-11T09:46:00.784Z,3.45
2022-08-11T09:48:33.138Z,3.00
2022-08-11T09:51:03.667Z,3.33
2022-08-11T09:53:41.231Z,3.15
2022-08-11T09:56:40.751Z,2.97
2022-08-11T09:59:10.029Z,3.17
2022-08-11T10:02:05.389Z,3.70
2022-08-11T10:04:44.197Z,3.10
2022-08-11T10:07:17.514Z,3.55
2022-08-11T10:09:57.558Z,3.13
2022-08-11T10:12:30.898Z,3.20
2022-08-11T10:15:24.766Z,3.30
2022-08-11T10:18:15.683Z,3.20
2022-08-11T10:20:46.826Z,3.78
2022-08-11T10:23:34.095Z,3.30
2022-08-11T10:26:22.825Z,2.92
2022-08-11T10:29:12.187Z,3.92
2022-08-11T10:32:02.040Z,2.97
2022-08-11T10:34:33.723Z,3.28
2022-08-11T10:37:06.938Z,3.47
2022-08-11T10:39:46.132Z,3.50
2022-08-11T10:42:55.324Z,3.25
2022-08-11T10:45:41.875Z,3.45
2022-08-11T10:48:15.380Z,3.45
2022-08-11T10:51:07.098Z,3.20
2022-08-11T10:53:56.501Z,3.28
2022-08-11T10:56:43.645Z,3.22
2022-08-11T10:59:12.424Z,3.40
2022-08-11T11:01:47.049Z,3.78
2022-08-11T11:04:19.420Z,3.30
2022-08-11T11:07:00.122Z,3.60
2022-08-11T11:10:01.205Z,3.35
2022-08-11T11:12:55.160Z,3.45
2022-08-11T11:15:44.904Z,3.60
2022-08-11T11:18:21.356Z,3.20
2022-08-11T11:20:59.169Z,3.78
2022-08-11T11:23:42.997Z,3.55
2022-08-11T11:26:27.940Z,3.65
2022-08-11T11:29:05.512Z,3.55
2022-08-11T11:31:52.069Z,3.47
2022-08-11T11:35:02.878Z,3.00
2022-08-11T11:37:37.874Z,3.50
2022-08-11T11:40:16.108Z,3.17
2022-08-11T11:42:47.636Z,4.30
2022-08-11T11:45:23.950Z,3.22
2022-08-11T11:48:00.979Z,4.65
2022-08-11T11:50:38.354Z,3.55
2022-08-11T11:53:12.852Z,4.13
2022-08-11T11:55:42.936Z,3.55
2022-08-11T11:58:30.341Z,3.50
2022-08-11T12:01:18.170Z,2.92
2022-08-11T12:03:49.149Z,2.75
2022-08-11T12:06:20.512Z,3.40
2022-08-11T12:08:53.192Z,3.10
2022-08-11T12:11:43.676Z,2.90
2022-08-11T12:14:13.744Z,2.70
2022-08-11T12:16:45.297Z,2.72
2022-08-11T12:19:20.489Z,2.80
2022-08-11T12:22:28.787Z,2.80
2022-08-11T12:25:16.046Z,2.90
2022-08-11T12:27:45.066Z,2.58
2022-08-11T12:30:15.245Z,3.08
2022-08-11T12:32:46.801Z,3.40
2022-08-11T12:35:17.609Z,2.90
2022-08-11T12:38:01.815Z,2.92
2022-08-11T12:41:16.164Z,2.53
2022-08-11T12:44:05.750Z,2.80
2022-08-11T12:46:39.180Z,3.60
2022-08-11T12:49:45.212Z,2.67
2022-08-11T12:52:25.446Z,2.75
2022-08-11T12:56:03.944Z,2.83
2022-08-11T12:58:32.733Z,2.92
2022-08-11T13:01:19.797Z,2.88
2022-08-11T13:04:06.955Z,3.88
2022-08-11T13:06:39.977Z,3.08
2022-08-11T13:11:57.933Z,2.75
2022-08-11T13:14:31.009Z,3.10
2022-08-11T13:17:18.260Z,2.75
2022-08-11T13:19:49.788Z,3.40
2022-08-11T13:22:21.485Z,2.90
2022-08-11T13:24:51.759Z,3.35
2022-08-11T13:27:22.127Z,2.67
2022-08-11T13:29:53.554Z,2.80
2022-08-11T13:32:27.495Z,2.45
2022-08-11T13:34:56.571Z,3.25
2022-08-11T13:38:17.246Z,2.97
2022-08-11T13:40:17.778Z,3.17
2022-08-11T13:42:50.925Z,2.90
2022-08-11T13:45:21.511Z,3.00
2022-08-11T13:47:51.650Z,3.03
2022-08-11T13:50:20.693Z,2.83
2022-08-11T13:52:53.338Z,2.58
2022-08-11T13:55:33.449Z,3.63
2022-08-11T13:58:19.136Z,3.50
2022-08-11T14:00:52.526Z,4.05
2022-08-11T14:04:29.009Z,4.68
2022-08-11T14:06:21.966Z,5.20
2022-08-11T14:08:56.021Z,5.10
2022-08-11T14:12:20.101Z,8.63
2022-08-11T14:14:36.618Z,6.45
2022-08-11T14:17:10.293Z,4.15
2022-08-11T14:19:43.550Z,4.40
2022-08-11T14:22:17.080Z,7.80
2022-08-11T14:24:53.862Z,4.93
2022-08-11T14:28:32.461Z,5.22
2022-08-11T14:30:39.310Z,5.38
2022-08-11T14:33:16.558Z,4.10
2022-08-11T14:35:48.759Z,3.55
2022-08-11T14:38:21.023Z,5.10
2022-08-11T14:41:11.955Z,3.60
2022-08-11T14:44:12.402Z,3.60
2022-08-11T14:47:04.275Z,4.03
2022-08-11T14:49:37.823Z,3.85
2022-08-11T14:52:26.963Z,3.58
2022-08-11T14:55:14.402Z,3.22
2022-08-11T14:57:55.392Z,3.58
2022-08-11T15:00:35.197Z,4.10
2022-08-11T15:03:13.400Z,3.67
2022-08-11T15:05:58.411Z,4.25
2022-08-11T15:08:49.106Z,3.20
2022-08-11T15:11:39.245Z,4.13
2022-08-11T15:14:11.128Z,4.20
2022-08-11T15:17:01.954Z,6.17
2022-08-11T15:19:40.114Z,4.25
2022-08-11T15:22:30.268Z,4.60
2022-08-11T15:25:01.771Z,3.33
2022-08-11T15:27:53.279Z,4.22
2022-08-11T15:30:41.172Z,2.95
2022-08-11T15:33:30.991Z,3.10
2022-08-11T15:36:20.750Z,4.07
2022-08-11T15:38:59.564Z,3.20
2022-08-11T15:42:03.973Z,4.25
2022-08-11T15:45:03.481Z,3.25
2022-08-11T15:47:42.658Z,5.20
2022-08-11T15:50:17.737Z,3.65
2022-08-11T15:52:58.171Z,3.90
2022-08-11T15:55:31.114Z,4.00
2022-08-11T15:58:22.244Z,4.88
2022-08-11T16:01:11.123Z,4.05
2022-08-11T16:04:15.543Z,4.75
2022-08-11T16:06:55.781Z,3.25
2022-08-11T16:09:47.128Z,3.53
2022-08-11T16:15:10.617Z,3.53
2022-08-11T16:17:55.568Z,3.35
2022-08-11T16:20:27.675Z,3.47
2022-08-11T16:23:01.855Z,4.05
2022-08-11T16:27:01.928Z,3.88
2022-08-11T16:28:25.069Z,3.85
2022-08-11T16:30:54.828Z,4.00
2022-08-11T16:33:49.648Z,4.60
2022-08-11T16:36:35.398Z,4.22
2022-08-11T16:39:05.846Z,4.22
2022-08-11T16:41:58.501Z,3.55
2022-08-11T16:44:48.114Z,4.18
2022-08-11T16:48:02.585Z,4.32
2022-08-11T16:50:12.151Z,4.00
2022-08-11T16:52:40.931Z,3.40
2022-08-11T16:55:11.044Z,2.88
2022-08-11T16:58:00.903Z,2.92
2022-08-11T17:00:31.037Z,3.28
2022-08-11T17:03:21.872Z,2.80
2022-08-11T17:06:13.017Z,3.40
2022-08-11T17:09:06.642Z,3.38
2022-08-11T17:12:02.339Z,3.20
2022-08-11T17:14:39.058Z,3.83
2022-08-11T17:17:14.642Z,2.80
2022-08-11T17:20:39.744Z,2.90
2022-08-11T17:22:59.936Z,3.13
2022-08-11T17:25:30.241Z,2.55
2022-08-11T17:28:01.234Z,2.45
2022-08-11T17:30:51.415Z,3.83
2022-08-11T17:33:39.164Z,2.55
2022-08-11T17:36:09.175Z,3.30
2022-08-11T17:38:39.758Z,2.58
2022-08-11T17:41:28.031Z,3.63
2022-08-11T17:44:15.703Z,3.17
2022-08-11T17:47:06.259Z,3.08
2022-08-11T17:49:39.056Z,3.05
2022-08-11T17:52:29.742Z,3.13
2022-08-11T17:55:50.923Z,2.95
2022-08-11T17:58:28.660Z,2.88
2022-08-11T18:01:00.542Z,2.92
2022-08-11T18:03:40.941Z,2.65
2022-08-11T18:06:13.302Z,3.50
2022-08-11T18:09:08.387Z,3.75
2022-08-11T18:12:06.592Z,3.50
2022-08-11T18:15:02.352Z,3.83
2022-08-11T18:17:49.993Z,2.33
2022-08-11T18:20:38.157Z,2.53
2022-08-11T18:23:40.716Z,3.53
2022-08-11T18:26:38.807Z,2.78
2022-08-11T18:29:28.133Z,2.80
2022-08-11T18:32:21.228Z,2.60
2022-08-11T18:35:13.616Z,3.35
2022-08-11T18:38:06.364Z,2.53
2022-08-11T18:40:56.072Z,2.42
2022-08-11T18:43:45.934Z,3.58
2022-08-11T18:46:36.914Z,3.05
2022-08-11T18:50:03.535Z,3.75
2022-08-11T18:52:41.291Z,3.08
2022-08-11T18:55:33.864Z,3.28
2022-08-11T18:58:25.960Z,2.67
2022-08-11T19:01:18.325Z,2.72
2022-08-11T19:04:10.488Z,3.42
2022-08-11T19:07:02.603Z,2.83
2022-08-11T19:09:51.494Z,2.80
2022-08-11T19:12:40.478Z,3.38
2022-08-11T19:15:30.624Z,2.70
2022-08-11T19:18:19.120Z,2.25
2022-08-11T19:21:08.783Z,2.75
2022-08-11T19:24:04.582Z,2.10
2022-08-11T19:26:53.378Z,2.63
2022-08-11T19:30:04.805Z,2.33
2022-08-11T19:32:51.019Z,2.50
2022-08-11T19:35:39.429Z,2.50
2022-08-11T19:38:28.112Z,2.47
2022-08-11T19:41:17.284Z,2.50
2022-08-11T19:44:26.225Z,2.22
2022-08-11T19:47:15.564Z,2.67
2022-08-11T19:50:04.141Z,3.08
2022-08-11T19:52:53.561Z,2.90
2022-08-11T19:55:40.884Z,2.88
2022-08-11T19:58:28.263Z,2.85
2022-08-11T20:01:15.398Z,2.65
2022-08-11T20:04:02.237Z,3.10
2022-08-11T20:06:50.232Z,3.10
2022-08-11T20:10:00.845Z,3.35
2022-08-11T20:12:47.629Z,2.75
2022-08-11T20:15:36.617Z,2.80
2022-08-11T20:18:26.904Z,3.13
2022-08-11T20:21:20.987Z,3.40
2022-08-11T20:24:15.643Z,2.50
2022-08-11T20:27:03.181Z,2.88
2022-08-11T20:29:52.402Z,3.15
2022-08-11T20:32:40.708Z,2.60
2022-08-11T20:35:29.291Z,2.53
2022-08-11T20:38:17.293Z,2.80
2022-08-11T20:41:06.117Z,2.60
2022-08-11T20:44:05.899Z,3.33
2022-08-11T20:47:00.076Z,2.75
2022-08-11T20:49:58.504Z,2.88
2022-08-11T20:52:50.100Z,2.85
2022-08-11T20:55:51.321Z,2.95
2022-08-11T20:59:13.240Z,3.28
2022-08-11T21:01:51.944Z,3.08
2022-08-11T21:04:54.744Z,2.60
2022-08-11T21:10:46.908Z,2.72
2022-08-11T21:13:36.988Z,3.13
2022-08-11T21:16:27.752Z,2.47
2022-08-11T21:20:00.092Z,2.90
2022-08-11T21:22:58.608Z,2.70
2022-08-11T21:25:49.035Z,3.22
2022-08-11T21:28:38.632Z,3.33
2022-08-11T21:31:28.620Z,2.85
2022-08-11T21:34:18.480Z,2.90
2022-08-11T21:37:07.113Z,3.00
2022-08-11T21:39:55.370Z,2.40
2022-08-11T21:42:43.991Z,4.13
2022-08-11T21:45:34.330Z,3.03
2022-08-11T21:48:22.345Z,2.67
2022-08-11T21:51:08.991Z,3.40
2022-08-11T21:53:56.179Z,4.05
2022-08-11T21:56:46.518Z,2.97
2022-08-11T21:59:40.787Z,3.33
2022-08-11T22:02:28.035Z,2.65
2022-08-11T22:05:15.792Z,3.15
2022-08-11T22:08:02.856Z,3.47
2022-08-11T22:10:50.236Z,3.92
2022-08-11T22:13:37.668Z,3.55
2022-08-11T22:16:24.557Z,3.05
2022-08-11T22:19:15.076Z,3.17
2022-08-11T22:22:06.860Z,2.85
2022-08-11T22:24:56.435Z,3.20
2022-08-11T22:27:44.757Z,3.03
2022-08-11T22:30:31.920Z,3.30
2022-08-11T22:33:24.416Z,3.00
2022-08-11T22:36:15.346Z,2.80
2022-08-11T22:39:04.677Z,2.85
2022-08-11T22:41:51.689Z,3.75
2022-08-11T22:44:38.856Z,2.92
2022-08-11T22:47:40.245Z,2.50
2022-08-11T22:50:29.457Z,2.20
2022-08-11T22:53:18.061Z,2.60
2022-08-11T22:56:06.075Z,2.00
2022-08-11T22:58:53.937Z,2.80
2022-08-11T23:01:56.331Z,2.85
2022-08-11T23:04:45.443Z,2.53
2022-08-11T23:07:51.431Z,2.38
2022-08-11T23:10:41.070Z,2.95
2022-08-11T23:13:28.691Z,4.60
2022-08-11T23:16:16.282Z,2.40
2022-08-11T23:19:04.523Z,2.15
2022-08-11T23:21:53.685Z,2.28
2022-08-11T23:24:42.312Z,2.50
2022-08-11T23:27:30.446Z,3.45
2022-08-11T23:30:20.064Z,2.10
2022-08-11T23:33:11.239Z,2.50
2022-08-11T23:36:04.761Z,3.03
2022-08-11T23:38:53.398Z,2.50
2022-08-11T23:41:41.976Z,2.20
2022-08-11T23:44:29.781Z,2.58
2022-08-11T23:47:19.899Z,2.40
2022-08-11T23:50:07.927Z,2.65
2022-08-11T23:52:55.747Z,2.67
2022-08-11T23:55:42.470Z,2.50
2022-08-11T23:58:31.309Z,3.28
